Time;durP1;ratioP1;P1;durP2;ratioP2;P2;SDS_P1;SDS_P2;PMS_P1;PMS_P2;Temp;Humidity;BMP_temperature;BMP_pressure;BME280_temperature;BME280_humidity;BME280_pressure;Samples;Min_cycle;Max_cycle;Signal;HPM_P1;HPM_P2
2021/05/20 00:02:07;;;;;;;2.45;1.20;;;;;;;;;;4945044;28;20027;-81
2021/05/20 00:04:32;;;;;;;2.20;1.10;;;;;;;;;;4945210;28;20110;-81
2021/05/20 00:06:57;;;;;;;2.10;1.03;;;;;;;;;;4929678;28;20436;-81
2021/05/20 00:09:23;;;;;;;2.17;1.10;;;;;;;;;;4945597;28;20077;-82
2021/05/20 00:11:48;;;;;;;2.27;1.03;;;;;;;;;;4960826;28;20581;-81
2021/05/20 00:14:13;;;;;;;2.37;1.10;;;;;;;;;;4943819;28;20524;-81
2021/05/20 00:16:39;;;;;;;1.90;1.10;;;;;;;;;;4941527;29;20058;-81
2021/05/20 00:19:04;;;;;;;3.23;1.10;;;;;;;;;;4942881;29;20046;-81
2021/05/20 00:21:29;;;;;;;1.87;1.00;;;;;;;;;;4942382;29;20054;-81
2021/05/20 00:23:55;;;;;;;1.73;1.00;;;;;;;;;;4926292;29;20035;-81
2021/05/20 00:26:21;;;;;;;2.30;1.17;;;;;;;;;;4942863;29;20031;-81
2021/05/20 00:28:46;;;;;;;2.53;1.30;;;;;;;;;;4929705;28;20375;-81
2021/05/20 00:31:12;;;;;;;1.93;1.10;;;;;;;;;;4945057;28;20057;-80
2021/05/20 00:33:38;;;;;;;2.63;0.98;;;;;;;;;;4953930;29;20466;-81
2021/05/20 00:36:04;;;;;;;1.93;0.93;;;;;;;;;;4910713;29;20067;-81
2021/05/20 00:38:29;;;;;;;2.90;1.30;;;;;;;;;;4925704;29;20042;-81
2021/05/20 00:40:59;;;;;;;2.13;1.10;;;;;;;;;;4940826;29;20056;-81
2021/05/20 00:43:24;;;;;;;1.77;1.02;;;;;;;;;;4926506;28;20117;-81
2021/05/20 00:45:50;;;;;;;1.87;1.00;;;;;;;;;;4936521;28;20536;-81
2021/05/20 00:48:15;;;;;;;1.70;0.90;;;;;;;;;;4963733;28;20028;-79
2021/05/20 00:55:01;;;;;;;1.88;1.02;;;;;;;;;;4906737;29;20133;-81
2021/05/20 00:57:27;;;;;;;1.73;1.00;;;;;;;;;;4860542;29;20091;-82
2021/05/20 01:00:06;;;;;;;2.93;1.10;;;;;;;;;;4956146;28;20095;-83
2021/05/20 01:02:34;;;;;;;1.95;1.00;;;;;;;;;;4956411;28;20116;-83
2021/05/20 01:05:02;;;;;;;1.70;1.08;;;;;;;;;;4963627;28;20015;-84
2021/05/20 01:07:27;;;;;;;2.15;1.02;;;;;;;;;;4960533;28;20047;-82
2021/05/20 01:13:14;;;;;;;1.65;0.93;;;;;;;;;;5001450;28;20041;-82
2021/05/20 01:15:40;;;;;;;2.10;0.90;;;;;;;;;;4957939;28;20022;-82
2021/05/20 01:18:05;;;;;;;1.83;0.93;;;;;;;;;;4958337;28;20273;-81
2021/05/20 01:20:35;;;;;;;2.00;0.90;;;;;;;;;;4958031;28;20042;-81
2021/05/20 01:23:05;;;;;;;1.98;0.90;;;;;;;;;;4973677;28;20374;-81
2021/05/20 01:25:30;;;;;;;1.92;0.90;;;;;;;;;;4974495;28;20026;-81
2021/05/20 01:28:01;;;;;;;2.97;1.20;;;;;;;;;;4943800;29;20027;-81
2021/05/20 01:30:26;;;;;;;2.38;1.05;;;;;;;;;;4936907;29;20042;-81
2021/05/20 01:32:52;;;;;;;1.83;1.00;;;;;;;;;;4952549;29;20232;-81
2021/05/20 01:35:17;;;;;;;2.07;1.00;;;;;;;;;;4961037;28;20022;-81
2021/05/20 01:37:42;;;;;;;2.37;1.00;;;;;;;;;;4991889;28;20045;-81
2021/05/20 01:40:09;;;;;;;1.83;1.07;;;;;;;;;;4994844;28;20026;-81
2021/05/20 01:42:34;;;;;;;1.83;0.90;;;;;;;;;;4990619;28;20042;-81
2021/05/20 01:44:59;;;;;;;1.63;0.90;;;;;;;;;;4974052;28;20042;-81
2021/05/20 01:47:25;;;;;;;1.57;0.70;;;;;;;;;;4972839;28;20026;-81
2021/05/20 01:49:51;;;;;;;1.70;0.90;;;;;;;;;;4958352;28;20113;-81
2021/05/20 01:52:17;;;;;;;;;;;;;;;;;;4984519;28;20034;-81
2021/05/20 01:54:42;;;;;;;1.35;0.80;;;;;;;;;;5008171;28;19916;-81
2021/05/20 01:57:08;;;;;;;0.97;0.80;;;;;;;;;;4973993;28;20026;-82
2021/05/20 01:59:33;;;;;;;1.70;0.97;;;;;;;;;;4961632;29;20031;-82
2021/05/20 02:01:58;;;;;;;1.90;1.00;;;;;;;;;;4938756;28;20031;-82
2021/05/20 02:04:23;;;;;;;1.70;0.87;;;;;;;;;;4955296;28;20034;-82
2021/05/20 02:06:49;;;;;;;2.13;1.00;;;;;;;;;;4962422;28;20050;-82
2021/05/20 02:09:14;;;;;;;1.30;0.83;;;;;;;;;;4971409;28;20085;-82
2021/05/20 02:11:40;;;;;;;2.30;1.00;;;;;;;;;;4954882;28;20057;-82
2021/05/20 02:14:05;;;;;;;1.50;0.90;;;;;;;;;;4963318;29;20094;-82
2021/05/20 02:16:30;;;;;;;1.67;0.90;;;;;;;;;;4948771;28;20030;-82
2021/05/20 02:18:56;;;;;;;1.90;1.00;;;;;;;;;;4974759;28;20056;-82
2021/05/20 02:21:21;;;;;;;1.67;0.90;;;;;;;;;;4973936;28;20014;-82
2021/05/20 02:23:46;;;;;;;2.10;1.20;;;;;;;;;;5005003;28;20034;-81
2021/05/20 02:26:12;;;;;;;1.07;0.73;;;;;;;;;;4967699;28;20106;-82
2021/05/20 02:28:37;;;;;;;1.93;1.00;;;;;;;;;;4972113;28;20030;-82
2021/05/20 02:31:02;;;;;;;2.03;0.90;;;;;;;;;;4971181;28;20018;-82
2021/05/20 02:33:28;;;;;;;1.03;0.70;;;;;;;;;;4972341;28;20030;-81
2021/05/20 02:35:53;;;;;;;1.87;0.80;;;;;;;;;;4971839;28;20093;-81
2021/05/20 02:38:18;;;;;;;2.00;0.90;;;;;;;;;;4972170;28;20060;-82
2021/05/20 02:40:44;;;;;;;1.53;0.90;;;;;;;;;;4949121;29;20020;-82
2021/05/20 02:43:09;;;;;;;2.70;0.87;;;;;;;;;;4976146;28;20058;-82
2021/05/20 02:45:34;;;;;;;2.23;0.90;;;;;;;;;;4976705;28;20061;-81
2021/05/20 02:48:00;;;;;;;1.63;0.80;;;;;;;;;;4967927;28;20022;-81
2021/05/20 02:50:25;;;;;;;1.47;0.73;;;;;;;;;;5002244;28;20054;-81
2021/05/20 02:52:50;;;;;;;0.90;0.70;;;;;;;;;;4969646;28;20105;-81
2021/05/20 02:57:48;;;;;;;2.03;0.90;;;;;;;;;;5009074;28;20042;-74
2021/05/20 03:00:13;;;;;;;1.45;0.85;;;;;;;;;;4966925;28;20030;-74
2021/05/20 03:02:39;;;;;;;1.90;0.93;;;;;;;;;;4984317;28;20401;-74
2021/05/20 03:05:06;;;;;;;1.53;0.70;;;;;;;;;;4976201;28;20033;-74
2021/05/20 03:07:31;;;;;;;1.70;0.85;;;;;;;;;;4958789;28;20030;-74
2021/05/20 03:09:56;;;;;;;2.27;0.83;;;;;;;;;;4970132;28;20072;-74
2021/05/20 03:12:23;;;;;;;1.80;1.03;;;;;;;;;;4978164;28;20474;-74
2021/05/20 03:14:48;;;;;;;1.60;0.90;;;;;;;;;;4974653;28;20034;-74
2021/05/20 03:17:13;;;;;;;1.43;0.90;;;;;;;;;;4958778;28;20031;-74
2021/05/20 03:19:39;;;;;;;1.60;0.80;;;;;;;;;;4984484;28;20062;-74
2021/05/20 03:22:06;;;;;;;1.27;0.80;;;;;;;;;;4977813;28;20029;-74
2021/05/20 03:24:31;;;;;;;1.50;0.80;;;;;;;;;;4977865;28;20054;-74
2021/05/20 03:26:56;;;;;;;2.60;0.80;;;;;;;;;;4963722;28;20536;-74
2021/05/20 03:29:22;;;;;;;1.53;0.80;;;;;;;;;;4967211;28;20054;-74
2021/05/20 03:31:47;;;;;;;1.67;0.77;;;;;;;;;;4995222;28;20065;-74
2021/05/20 03:34:12;;;;;;;1.13;0.77;;;;;;;;;;4985254;28;20117;-74
2021/05/20 03:36:38;;;;;;;1.80;0.97;;;;;;;;;;4975650;28;20105;-74
2021/05/20 03:39:03;;;;;;;1.20;0.70;;;;;;;;;;4982071;28;20444;-74
2021/05/20 03:41:29;;;;;;;1.60;0.80;;;;;;;;;;4977060;28;20481;-74
2021/05/20 03:43:54;;;;;;;2.03;0.90;;;;;;;;;;4963180;28;20074;-74
2021/05/20 03:46:20;;;;;;;1.30;0.70;;;;;;;;;;4958245;28;20494;-74
2021/05/20 03:48:46;;;;;;;1.73;0.88;;;;;;;;;;4961955;28;20033;-74
2021/05/20 03:51:11;;;;;;;1.00;0.67;;;;;;;;;;4994856;28;20030;-74
2021/05/20 03:53:36;;;;;;;1.53;0.70;;;;;;;;;;4986490;28;20109;-74
2021/05/20 03:56:02;;;;;;;1.27;0.77;;;;;;;;;;4957871;28;20054;-74
2021/05/20 03:58:27;;;;;;;1.33;0.73;;;;;;;;;;4975698;28;20030;-74
2021/05/20 04:00:53;;;;;;;1.10;0.63;;;;;;;;;;4941919;28;20054;-74
2021/05/20 04:03:28;;;;;;;1.70;1.03;;;;;;;;;;4960514;28;20122;-74
2021/05/20 04:05:54;;;;;;;1.40;0.80;;;;;;;;;;4942500;28;20027;-74
2021/05/20 04:08:19;;;;;;;1.45;0.80;;;;;;;;;;4946008;28;20037;-74
2021/05/20 04:10:45;;;;;;;1.40;0.80;;;;;;;;;;4957997;28;20113;-74
2021/05/20 04:13:10;;;;;;;1.50;0.70;;;;;;;;;;4972935;28;20026;-74
2021/05/20 04:15:36;;;;;;;1.13;0.60;;;;;;;;;;4974902;28;20061;-74
2021/05/20 04:18:01;;;;;;;1.30;0.60;;;;;;;;;;4941859;28;20033;-74
2021/05/20 04:20:26;;;;;;;0.97;0.70;;;;;;;;;;4941555;28;20105;-74
2021/05/20 04:22:52;;;;;;;1.10;0.67;;;;;;;;;;4941406;28;20512;-74
2021/05/20 04:25:18;;;;;;;1.43;0.70;;;;;;;;;;4958022;28;20114;-74
2021/05/20 04:27:43;;;;;;;1.15;0.60;;;;;;;;;;4930286;28;20027;-74
2021/05/20 04:30:10;;;;;;;1.27;0.70;;;;;;;;;;4973624;28;20066;-73
2021/05/20 04:32:35;;;;;;;2.00;0.80;;;;;;;;;;4958164;28;20416;-74
2021/05/20 04:35:01;;;;;;;1.07;0.60;;;;;;;;;;4977343;28;20109;-73
2021/05/20 04:37:26;;;;;;;1.40;0.80;;;;;;;;;;4982257;28;20062;-74
2021/05/20 04:39:51;;;;;;;0.87;0.53;;;;;;;;;;4974614;28;20050;-74
2021/05/20 04:42:17;;;;;;;1.27;0.70;;;;;;;;;;4977396;28;20522;-73
2021/05/20 04:44:42;;;;;;;1.40;0.63;;;;;;;;;;4992595;28;20401;-74
2021/05/20 04:47:08;;;;;;;1.53;0.80;;;;;;;;;;4950944;28;20105;-73
2021/05/20 04:49:33;;;;;;;1.30;0.70;;;;;;;;;;4959758;28;20505;-74
2021/05/20 04:51:58;;;;;;;1.80;0.63;;;;;;;;;;4974207;28;20050;-74
2021/05/20 04:54:24;;;;;;;0.97;0.57;;;;;;;;;;4988356;28;20057;-73
2021/05/20 04:56:49;;;;;;;1.43;0.70;;;;;;;;;;4969227;28;20545;-73
2021/05/20 04:59:14;;;;;;;1.47;0.70;;;;;;;;;;4954530;28;20061;-73
2021/05/20 05:01:40;;;;;;;1.83;0.80;;;;;;;;;;4956126;28;20030;-73
2021/05/20 05:04:05;;;;;;;1.43;0.70;;;;;;;;;;4950327;28;20050;-73
2021/05/20 05:06:31;;;;;;;1.23;0.70;;;;;;;;;;4958149;28;20460;-73
2021/05/20 05:08:56;;;;;;;1.20;0.70;;;;;;;;;;4966264;28;20045;-73
2021/05/20 05:11:21;;;;;;;1.33;0.70;;;;;;;;;;4976239;28;20080;-73
2021/05/20 05:13:47;;;;;;;1.07;0.60;;;;;;;;;;4992446;28;20041;-73
2021/05/20 05:16:12;;;;;;;0.80;0.60;;;;;;;;;;4991935;28;20456;-73
2021/05/20 05:18:38;;;;;;;1.27;0.73;;;;;;;;;;4975978;28;20054;-74
2021/05/20 05:21:04;;;;;;;1.25;0.68;;;;;;;;;;4975537;28;20049;-73
2021/05/20 05:23:29;;;;;;;1.10;0.70;;;;;;;;;;4991065;28;20046;-73
2021/05/20 05:25:55;;;;;;;1.97;0.70;;;;;;;;;;4960272;28;20058;-73
2021/05/20 05:28:20;;;;;;;1.00;0.60;;;;;;;;;;4991840;28;20101;-73
2021/05/20 05:30:46;;;;;;;1.40;0.73;;;;;;;;;;4969178;28;20110;-73
2021/05/20 05:33:11;;;;;;;1.23;0.60;;;;;;;;;;4993221;28;20120;-73
2021/05/20 05:35:36;;;;;;;0.93;0.50;;;;;;;;;;4968110;28;20143;-73
2021/05/20 05:38:02;;;;;;;0.70;0.60;;;;;;;;;;4992801;28;20031;-73
2021/05/20 05:40:28;;;;;;;1.43;0.50;;;;;;;;;;4971017;28;20321;-73
2021/05/20 05:42:54;;;;;;;1.00;0.60;;;;;;;;;;4988541;28;20045;-73
2021/05/20 05:45:19;;;;;;;1.13;0.70;;;;;;;;;;4948673;28;20058;-73
2021/05/20 05:47:44;;;;;;;1.23;0.50;;;;;;;;;;4974905;28;20034;-73
2021/05/20 05:50:12;;;;;;;0.83;0.60;;;;;;;;;;4984033;28;20048;-73
2021/05/20 05:52:39;;;;;;;1.25;0.73;;;;;;;;;;5006391;28;20018;-72
2021/05/20 05:55:05;;;;;;;0.95;0.52;;;;;;;;;;4988772;28;20049;-73
2021/05/20 05:57:30;;;;;;;1.80;0.60;;;;;;;;;;4974407;28;20117;-73
2021/05/20 05:59:56;;;;;;;1.00;0.50;;;;;;;;;;4992378;28;20101;-72
2021/05/20 06:02:21;;;;;;;1.27;0.67;;;;;;;;;;4975869;28;20035;-73
2021/05/20 06:04:50;;;;;;;0.70;0.50;;;;;;;;;;4977850;28;20105;-73
2021/05/20 06:07:15;;;;;;;1.10;0.70;;;;;;;;;;4963022;28;20400;-73
2021/05/20 06:09:40;;;;;;;1.07;0.60;;;;;;;;;;4979307;28;20029;-73
2021/05/20 06:12:06;;;;;;;1.60;0.70;;;;;;;;;;4980136;28;20470;-73
2021/05/20 06:14:31;;;;;;;0.83;0.57;;;;;;;;;;4987736;28;20034;-73
2021/05/20 06:16:57;;;;;;;1.27;0.50;;;;;;;;;;4991609;28;20092;-73
2021/05/20 06:19:22;;;;;;;1.00;0.60;;;;;;;;;;4990112;28;20073;-72
2021/05/20 06:21:47;;;;;;;0.87;0.60;;;;;;;;;;4963701;28;20023;-72
2021/05/20 06:24:13;;;;;;;1.23;0.70;;;;;;;;;;4985867;28;20125;-72
2021/05/20 06:26:38;;;;;;;0.97;0.50;;;;;;;;;;4943841;28;20123;-72
2021/05/20 06:29:04;;;;;;;1.07;0.50;;;;;;;;;;4979916;28;20026;-72
2021/05/20 06:31:29;;;;;;;1.20;0.60;;;;;;;;;;4979058;28;20030;-72
2021/05/20 06:33:55;;;;;;;1.30;0.60;;;;;;;;;;4993891;28;20026;-72
2021/05/20 06:36:22;;;;;;;0.80;0.50;;;;;;;;;;4975404;28;20025;-72
2021/05/20 06:38:47;;;;;;;0.77;0.50;;;;;;;;;;4975671;28;20038;-72
2021/05/20 06:41:13;;;;;;;1.33;0.70;;;;;;;;;;4992481;28;20115;-73
2021/05/20 06:43:38;;;;;;;1.07;0.60;;;;;;;;;;4975337;28;20080;-73
2021/05/20 06:46:05;;;;;;;1.13;0.60;;;;;;;;;;4993518;28;20339;-72
2021/05/20 06:48:30;;;;;;;1.02;0.65;;;;;;;;;;4978524;28;20041;-73
2021/05/20 06:50:56;;;;;;;1.37;0.57;;;;;;;;;;5012201;28;20540;-72
2021/05/20 06:53:24;;;;;;;1.43;0.70;;;;;;;;;;4978191;28;20026;-72
2021/05/20 06:55:52;;;;;;;0.70;0.50;;;;;;;;;;4994804;28;20036;-73
2021/05/20 07:01:01;;;;;;;1.35;0.68;;;;;;;;;;4997066;28;20075;-73
2021/05/20 07:03:27;;;;;;;1.23;0.50;;;;;;;;;;4994121;28;20112;-73
2021/05/20 07:05:54;;;;;;;1.50;0.67;;;;;;;;;;4984755;28;20031;-73
2021/05/20 07:08:19;;;;;;;1.27;0.57;;;;;;;;;;4973851;28;20535;-73
2021/05/20 07:10:45;;;;;;;1.03;0.50;;;;;;;;;;4974729;28;20050;-73
2021/05/20 07:13:11;;;;;;;1.67;0.70;;;;;;;;;;4958785;28;20062;-73
2021/05/20 07:15:36;;;;;;;2.78;0.70;;;;;;;;;;4958456;28;20034;-73
2021/05/20 07:18:02;;;;;;;0.87;0.53;;;;;;;;;;4958776;28;20466;-73
2021/05/20 07:20:27;;;;;;;1.30;0.60;;;;;;;;;;4959642;28;20120;-73
2021/05/20 07:22:52;;;;;;;1.30;0.50;;;;;;;;;;4993966;28;20505;-73
2021/05/20 07:25:18;;;;;;;1.93;0.70;;;;;;;;;;5011567;28;20053;-73
2021/05/20 07:27:43;;;;;;;1.73;0.70;;;;;;;;;;5011067;28;20133;-72
2021/05/20 07:30:09;;;;;;;1.27;0.60;;;;;;;;;;4993886;28;20554;-73
2021/05/20 07:32:34;;;;;;;1.10;0.60;;;;;;;;;;4993652;28;20564;-73
2021/05/20 07:35:00;;;;;;;1.10;0.50;;;;;;;;;;4993875;28;20467;-73
2021/05/20 07:37:25;;;;;;;1.47;0.60;;;;;;;;;;5011355;28;20053;-73
2021/05/20 07:39:51;;;;;;;1.20;0.60;;;;;;;;;;4993442;28;20366;-72
2021/05/20 07:42:16;;;;;;;1.00;0.50;;;;;;;;;;4977344;28;20092;-73
2021/05/20 07:44:41;;;;;;;1.20;0.60;;;;;;;;;;4993539;28;20061;-73
2021/05/20 07:47:07;;;;;;;1.13;0.57;;;;;;;;;;4993597;28;20061;-73
2021/05/20 07:49:36;;;;;;;1.17;0.63;;;;;;;;;;4993531;28;20096;-72
2021/05/20 07:52:04;;;;;;;2.70;0.57;;;;;;;;;;4977967;28;20014;-72
2021/05/20 07:54:29;;;;;;;1.50;0.60;;;;;;;;;;4973276;28;20035;-72
2021/05/20 07:56:54;;;;;;;1.03;0.63;;;;;;;;;;4970566;28;20478;-73
2021/05/20 07:59:20;;;;;;;1.33;0.70;;;;;;;;;;4954607;28;20439;-73
2021/05/20 08:01:53;;;;;;;0.53;0.47;;;;;;;;;;4955709;28;20015;-73
2021/05/20 08:04:20;;;;;;;1.30;0.52;;;;;;;;;;4964460;28;20031;-72
2021/05/20 08:06:56;;;;;;;1.15;0.60;;;;;;;;;;4954675;28;20041;-72
2021/05/20 08:09:33;;;;;;;2.30;0.60;;;;;;;;;;4971848;28;20026;-73
2021/05/20 08:11:59;;;;;;;2.08;0.52;;;;;;;;;;4988334;28;20058;-73
2021/05/20 08:14:24;;;;;;;0.97;0.53;;;;;;;;;;4973979;28;20023;-72
2021/05/20 08:16:49;;;;;;;1.27;0.70;;;;;;;;;;4953962;28;20149;-72
2021/05/20 08:19:15;;;;;;;1.37;0.60;;;;;;;;;;4980333;28;20026;-73
2021/05/20 08:21:41;;;;;;;1.13;0.60;;;;;;;;;;4972862;28;20158;-73
2021/05/20 08:24:06;;;;;;;1.02;0.50;;;;;;;;;;4973181;28;20061;-73
2021/05/20 08:26:32;;;;;;;1.40;0.70;;;;;;;;;;4973208;28;20030;-73
2021/05/20 08:28:57;;;;;;;0.97;0.50;;;;;;;;;;4983207;28;20474;-73
2021/05/20 08:31:24;;;;;;;0.83;0.50;;;;;;;;;;4953835;28;20026;-73
2021/05/20 08:33:49;;;;;;;1.40;0.52;;;;;;;;;;4982715;28;20058;-73
2021/05/20 08:36:14;;;;;;;0.70;0.50;;;;;;;;;;4972938;28;20118;-73
2021/05/20 08:38:40;;;;;;;1.40;0.70;;;;;;;;;;4985461;28;20801;-73
2021/05/20 08:41:05;;;;;;;1.93;0.60;;;;;;;;;;4937704;28;20035;-73
2021/05/20 08:43:30;;;;;;;1.40;0.60;;;;;;;;;;4946052;28;20038;-73
2021/05/20 08:45:56;;;;;;;1.80;0.73;;;;;;;;;;4988889;28;20484;-73
2021/05/20 08:48:21;;;;;;;1.27;0.57;;;;;;;;;;4975549;28;20041;-73
2021/05/20 08:50:47;;;;;;;1.00;0.50;;;;;;;;;;4990619;28;20466;-73
2021/05/20 08:53:12;;;;;;;1.30;0.60;;;;;;;;;;4950303;28;20129;-73
2021/05/20 08:55:38;;;;;;;0.97;0.60;;;;;;;;;;4974237;28;20041;-73
2021/05/20 08:58:05;;;;;;;1.23;0.50;;;;;;;;;;4965515;28;20030;-73
2021/05/20 09:00:31;;;;;;;1.23;0.57;;;;;;;;;;4938050;28;20037;-73
2021/05/20 09:03:10;;;;;;;1.30;0.60;;;;;;;;;;4958323;28;20034;-73
2021/05/20 09:05:35;;;;;;;1.15;0.60;;;;;;;;;;4972816;28;20049;-73
2021/05/20 09:08:04;;;;;;;0.90;0.60;;;;;;;;;;4966856;28;20541;-73
2021/05/20 09:10:33;;;;;;;1.33;0.63;;;;;;;;;;4970866;28;20114;-73
2021/05/20 09:13:06;;;;;;;0.80;0.55;;;;;;;;;;4981880;28;20023;-73
2021/05/20 09:15:35;;;;;;;1.80;0.63;;;;;;;;;;4958218;23;20018;-77
2021/05/20 09:18:14;;;;;;;1.25;0.60;;;;;;;;;;4967076;28;20035;-77
2021/05/20 09:20:44;;;;;;;1.10;0.50;;;;;;;;;;4961170;28;20024;-80
2021/05/20 09:23:12;;;;;;;1.35;0.60;;;;;;;;;;4965142;28;20085;-79
2021/05/20 09:25:38;;;;;;;1.90;0.60;;;;;;;;;;4976035;28;20105;-79
2021/05/20 09:28:04;;;;;;;1.42;0.70;;;;;;;;;;4943181;28;20150;-79
2021/05/20 09:30:30;;;;;;;1.05;0.50;;;;;;;;;;4963136;28;20037;-80
2021/05/20 09:33:06;;;;;;;1.17;0.60;;;;;;;;;;4942865;28;20030;-80
2021/05/20 09:35:35;;;;;;;1.30;0.40;;;;;;;;;;4961398;28;20305;-79
2021/05/20 09:38:10;;;;;;;0.88;0.50;;;;;;;;;;4943229;28;20519;-81
2021/05/20 09:40:50;;;;;;;0.98;0.50;;;;;;;;;;4939675;28;20509;-79
2021/05/20 09:43:23;;;;;;;1.65;0.70;;;;;;;;;;4964377;28;20109;-81
2021/05/20 09:45:50;;;;;;;0.82;0.45;;;;;;;;;;4977440;28;20474;-81
2021/05/20 09:48:16;;;;;;;1.17;0.65;;;;;;;;;;4960650;28;20034;-80
2021/05/20 09:50:46;;;;;;;0.90;0.47;;;;;;;;;;4966210;28;20015;-80
2021/05/20 09:53:18;;;;;;;1.75;0.60;;;;;;;;;;4980378;28;20066;-80
2021/05/20 09:55:46;;;;;;;1.38;0.60;;;;;;;;;;4979740;28;20026;-79
2021/05/20 09:58:12;;;;;;;1.85;0.60;;;;;;;;;;4964212;28;20030;-80
2021/05/20 10:00:37;;;;;;;1.07;0.60;;;;;;;;;;4979764;28;20019;-81
2021/05/20 10:03:11;;;;;;;1.63;0.60;;;;;;;;;;4929180;28;20041;-80
2021/05/20 10:05:40;;;;;;;1.17;0.60;;;;;;;;;;4961592;28;20027;-80
2021/05/20 10:08:07;;;;;;;1.52;0.65;;;;;;;;;;4995868;28;20026;-80
2021/05/20 10:11:03;;;;;;;0.73;0.50;;;;;;;;;;4960132;28;20029;-80
2021/05/20 10:13:28;;;;;;;1.55;0.55;;;;;;;;;;4959377;28;20035;-80
2021/05/20 10:15:55;;;;;;;0.57;0.40;;;;;;;;;;4955324;28;20108;-81
2021/05/20 10:18:25;;;;;;;1.52;0.70;;;;;;;;;;4979437;28;20509;-80
2021/05/20 10:20:53;;;;;;;0.80;0.50;;;;;;;;;;4970606;28;20019;-80
2021/05/20 10:23:22;;;;;;;1.00;0.50;;;;;;;;;;4963126;28;20037;-80
2021/05/20 10:25:51;;;;;;;0.88;0.43;;;;;;;;;;4978977;28;20409;-80
2021/05/20 10:28:17;;;;;;;1.73;0.70;;;;;;;;;;4979857;28;20109;-81
2021/05/20 10:30:44;;;;;;;1.55;0.77;;;;;;;;;;4963043;28;20105;-82
2021/05/20 10:33:10;;;;;;;1.00;0.50;;;;;;;;;;4980443;28;20036;-79
2021/05/20 10:35:48;;;;;;;0.87;0.47;;;;;;;;;;4975680;28;20054;-79
2021/05/20 10:38:25;;;;;;;0.80;0.40;;;;;;;;;;4977852;28;20038;-79
2021/05/20 10:41:12;;;;;;;0.82;0.47;;;;;;;;;;4961500;28;20037;-80
2021/05/20 10:43:38;;;;;;;1.13;0.50;;;;;;;;;;4959847;28;20581;-80
2021/05/20 10:46:12;;;;;;;2.13;0.50;;;;;;;;;;4976846;28;20038;-80
2021/05/20 10:48:38;;;;;;;1.90;0.40;;;;;;;;;;4952011;28;20054;-81
2021/05/20 10:51:04;;;;;;;0.90;0.60;;;;;;;;;;4980144;28;20101;-80
2021/05/20 10:53:47;;;;;;;1.00;0.50;;;;;;;;;;4979782;28;20790;-80
2021/05/20 10:56:12;;;;;;;2.05;0.60;;;;;;;;;;4971233;28;20513;-80
2021/05/20 10:58:38;;;;;;;1.23;0.57;;;;;;;;;;4979491;28;20051;-80
2021/05/20 11:01:08;;;;;;;1.20;0.57;;;;;;;;;;4959167;28;20030;-78
2021/05/20 11:03:49;;;;;;;0.95;0.43;;;;;;;;;;4979193;28;20041;-80
2021/05/20 11:06:15;;;;;;;1.10;0.55;;;;;;;;;;4995135;28;20037;-78
2021/05/20 11:08:46;;;;;;;1.40;0.50;;;;;;;;;;4974722;28;20027;-78
2021/05/20 11:11:43;;;;;;;0.85;0.40;;;;;;;;;;4985490;28;20026;-78
2021/05/20 11:14:12;;;;;;;1.05;0.50;;;;;;;;;;4959232;28;20037;-78
2021/05/20 11:16:37;;;;;;;0.95;0.57;;;;;;;;;;4978176;28;20452;-78
2021/05/20 11:19:23;;;;;;;1.47;0.70;;;;;;;;;;4944213;28;20035;-77
2021/05/20 11:21:57;;;;;;;1.30;0.57;;;;;;;;;;4961980;28;20022;-78
2021/05/20 11:24:29;;;;;;;1.10;0.40;;;;;;;;;;4976920;28;20031;-80
2021/05/20 11:27:02;;;;;;;0.98;0.40;;;;;;;;;;4975198;28;20509;-81
2021/05/20 11:29:29;;;;;;;1.25;0.60;;;;;;;;;;4963519;28;20421;-81
2021/05/20 11:31:59;;;;;;;0.88;0.52;;;;;;;;;;4943456;28;20022;-81
2021/05/20 11:34:36;;;;;;;1.10;0.55;;;;;;;;;;4964271;28;20366;-81
2021/05/20 11:37:02;;;;;;;0.85;0.40;;;;;;;;;;4949499;28;20029;-79
2021/05/20 11:39:27;;;;;;;1.07;0.50;;;;;;;;;;4995648;28;20038;-79
2021/05/20 11:41:53;;;;;;;1.20;0.50;;;;;;;;;;4958644;28;20153;-79
2021/05/20 11:44:20;;;;;;;0.60;0.47;;;;;;;;;;4959311;28;20478;-79
2021/05/20 11:47:04;;;;;;;1.23;0.50;;;;;;;;;;4956637;28;20446;-79
2021/05/20 11:49:29;;;;;;;0.98;0.50;;;;;;;;;;4961729;28;20089;-79
2021/05/20 11:51:59;;;;;;;1.63;0.50;;;;;;;;;;4994550;28;20461;-79
2021/05/20 11:54:50;;;;;;;1.30;0.50;;;;;;;;;;4942755;28;20023;-80
2021/05/20 11:57:20;;;;;;;0.70;0.40;;;;;;;;;;4943275;28;20034;-79
2021/05/20 11:59:55;;;;;;;1.00;0.50;;;;;;;;;;4943850;28;20661;-80
2021/05/20 12:02:28;;;;;;;0.93;0.47;;;;;;;;;;4961523;28;20027;-81
2021/05/20 12:05:08;;;;;;;0.82;0.40;;;;;;;;;;4961811;28;20034;-80
2021/05/20 12:07:33;;;;;;;1.30;0.50;;;;;;;;;;4944909;28;20057;-80
2021/05/20 12:10:19;;;;;;;0.83;0.50;;;;;;;;;;4927394;28;20097;-80
2021/05/20 12:12:55;;;;;;;1.10;0.50;;;;;;;;;;4926269;28;20490;-79
2021/05/20 12:15:22;;;;;;;0.50;0.40;;;;;;;;;;4927425;28;20482;-77
2021/05/20 12:17:47;;;;;;;0.93;0.52;;;;;;;;;;4958455;28;20079;-79
2021/05/20 12:20:14;;;;;;;1.23;0.50;;;;;;;;;;4942751;28;20030;-78
2021/05/20 12:22:39;;;;;;;1.70;0.50;;;;;;;;;;4958618;28;20106;-78
2021/05/20 12:25:12;;;;;;;0.50;0.35;;;;;;;;;;4942246;28;20054;-78
2021/05/20 12:27:38;;;;;;;0.93;0.50;;;;;;;;;;4942733;28;20027;-78
2021/05/20 12:30:08;;;;;;;1.13;0.57;;;;;;;;;;4991774;28;20108;-79
2021/05/20 12:32:39;;;;;;;0.73;0.40;;;;;;;;;;4977512;28;20022;-78
2021/05/20 12:35:13;;;;;;;0.90;0.50;;;;;;;;;;4961537;28;20122;-78
2021/05/20 12:37:50;;;;;;;1.00;0.50;;;;;;;;;;4977549;28;20027;-79
2021/05/20 12:40:35;;;;;;;1.27;0.40;;;;;;;;;;4957661;28;20050;-78
2021/05/20 12:43:02;;;;;;;1.02;0.47;;;;;;;;;;4951480;28;20738;-78
2021/05/20 12:45:28;;;;;;;0.60;0.40;;;;;;;;;;4977312;28;20030;-79
2021/05/20 12:47:54;;;;;;;1.35;0.60;;;;;;;;;;4992462;28;20121;-79
2021/05/20 12:50:34;;;;;;;1.13;0.40;;;;;;;;;;4958335;28;20113;-79
2021/05/20 12:52:59;;;;;;;0.82;0.45;;;;;;;;;;4948497;28;20022;-81
2021/05/20 12:55:38;;;;;;;0.63;0.40;;;;;;;;;;4960908;28;20018;-79
2021/05/20 12:58:04;;;;;;;0.52;0.38;;;;;;;;;;4957859;28;20037;-79
2021/05/20 13:00:57;;;;;;;1.00;0.50;;;;;;;;;;4958427;28;20743;-79
2021/05/20 13:03:27;;;;;;;0.85;0.50;;;;;;;;;;4973292;28;20117;-79
2021/05/20 13:05:53;;;;;;;1.00;0.50;;;;;;;;;;4931056;28;20767;-78
2021/05/20 13:08:42;;;;;;;;;;;;;;;;;;4938053;28;20054;-79
2021/05/20 13:11:17;;;;;;;1.50;0.50;;;;;;;;;;4972603;28;20350;-79
2021/05/20 13:13:43;;;;;;;1.38;0.60;;;;;;;;;;4945032;28;20605;-80
2021/05/20 13:16:13;;;;;;;0.98;0.40;;;;;;;;;;4994649;28;20030;-79
2021/05/20 13:18:59;;;;;;;0.82;0.50;;;;;;;;;;4977892;28;20054;-80
2021/05/20 13:24:15;;;;;;;1.23;0.50;;;;;;;;;;4960650;28;20576;-80
2021/05/20 13:26:40;;;;;;;0.75;0.40;;;;;;;;;;4941324;28;20127;-80
2021/05/20 13:29:05;;;;;;;0.70;0.50;;;;;;;;;;4941584;28;20078;-80
2021/05/20 13:31:31;;;;;;;1.03;0.50;;;;;;;;;;4974004;28;20077;-80
2021/05/20 13:33:56;;;;;;;0.80;0.40;;;;;;;;;;4992745;28;20029;-80
2021/05/20 13:36:21;;;;;;;0.97;0.40;;;;;;;;;;4961219;28;20073;-80
2021/05/20 13:38:48;;;;;;;0.60;0.40;;;;;;;;;;4960537;28;20088;-80
2021/05/20 13:41:13;;;;;;;0.90;0.45;;;;;;;;;;4960918;28;20053;-81
2021/05/20 13:43:38;;;;;;;1.30;0.50;;;;;;;;;;4993097;28;20485;-81
2021/05/20 13:46:04;;;;;;;1.27;0.47;;;;;;;;;;4961052;28;20765;-81
2021/05/20 13:48:30;;;;;;;0.97;0.50;;;;;;;;;;4960874;28;20030;-81
2021/05/20 13:50:56;;;;;;;;;;;;;;;;;;4944887;28;20024;-81
2021/05/20 13:53:21;;;;;;;1.13;0.40;;;;;;;;;;4961035;28;19992;-81
2021/05/20 13:55:46;;;;;;;1.00;0.40;;;;;;;;;;4976854;28;20030;-82
2021/05/20 13:58:13;;;;;;;0.70;0.50;;;;;;;;;;4976818;28;20080;-80
2021/05/20 14:00:39;;;;;;;0.77;0.50;;;;;;;;;;4960777;28;20037;-84
2021/05/20 14:03:06;;;;;;;0.68;0.30;;;;;;;;;;4960334;28;20464;-81
2021/05/20 14:05:32;;;;;;;0.77;0.43;;;;;;;;;;4992595;28;20044;-82
2021/05/20 14:07:57;;;;;;;0.80;0.40;;;;;;;;;;4976782;28;20085;-81
2021/05/20 14:10:23;;;;;;;1.07;0.47;;;;;;;;;;4959986;28;20093;-81
2021/05/20 14:12:48;;;;;;;0.90;0.30;;;;;;;;;;4944862;28;20026;-79
2021/05/20 14:15:14;;;;;;;0.53;0.30;;;;;;;;;;4992638;28;20659;-79
2021/05/20 14:17:44;;;;;;;1.00;0.50;;;;;;;;;;4959993;28;20030;-77
2021/05/20 14:20:10;;;;;;;0.80;0.40;;;;;;;;;;4996467;28;20478;-78
2021/05/20 14:22:37;;;;;;;0.63;0.30;;;;;;;;;;4995604;28;20425;-78
2021/05/20 14:25:03;;;;;;;0.63;0.30;;;;;;;;;;4978980;28;20093;-77
2021/05/20 14:27:28;;;;;;;0.57;0.40;;;;;;;;;;4963484;28;20026;-78
2021/05/20 14:29:54;;;;;;;0.37;0.30;;;;;;;;;;4980022;28;20054;-81
2021/05/20 14:32:20;;;;;;;0.60;0.40;;;;;;;;;;4963567;28;20038;-78
2021/05/20 14:34:46;;;;;;;0.80;0.43;;;;;;;;;;4979660;28;20500;-79
2021/05/20 14:37:13;;;;;;;0.68;0.45;;;;;;;;;;4979553;28;20409;-78
2021/05/20 14:39:39;;;;;;;0.60;0.30;;;;;;;;;;4979875;28;20029;-77
2021/05/20 14:42:04;;;;;;;1.13;0.40;;;;;;;;;;4995663;28;20026;-78
2021/05/20 14:44:30;;;;;;;1.03;0.50;;;;;;;;;;4979583;28;20053;-79
2021/05/20 14:46:55;;;;;;;0.93;0.50;;;;;;;;;;4996611;28;20396;-77
2021/05/20 14:52:08;;;;;;;0.55;0.40;;;;;;;;;;4982093;28;20031;-78
2021/05/20 14:54:38;;;;;;;0.80;0.30;;;;;;;;;;4965274;28;20386;-78
2021/05/20 15:05:19;;;;;;;1.52;0.50;;;;;;;;;;4981934;28;20034;-79
2021/05/20 15:07:46;;;;;;;1.15;0.40;;;;;;;;;;4994097;28;20404;-78
2021/05/20 15:10:18;;;;;;;0.75;0.40;;;;;;;;;;4960635;28;20066;-78
2021/05/20 15:15:15;;;;;;;1.40;0.30;;;;;;;;;;4994405;28;20030;-77